PST,Max TemperatureF,Mean TemperatureF,Min TemperatureF,Max Dew PointF,MeanDew PointF,Min DewpointF,Max Humidity, Mean Humidity, Min Humidity, Max Sea Level PressureIn, Mean Sea Level PressureIn, Min Sea Level PressureIn, Max VisibilityMiles, Mean VisibilityMiles, Min VisibilityMiles, Max Wind SpeedMPH, Mean Wind SpeedMPH, Max Gust SpeedMPH,PrecipitationIn, CloudCover, Events, WindDirDegrees
2013-1-1,40,32,23,37,27,22,100,97,73,30.52,30.45,30.36,10,3,0,6,2,,0.00,1,Fog,119
2013-1-2,37,30,23,37,28,23,100,99,93,30.36,30.27,30.19,10,2,0,6,2,,0.00,2,Fog,162
2013-1-3,37,28,19,37,29,19,100,98,83,30.22,30.15,30.11,10,6,0,6,2,,0.10,5,Fog-Rain,159
2013-1-4,50,42,35,45,40,36,100,97,81,30.34,30.23,30.16,10,6,1,8,2,,0.02,7,Rain,181
2013-1-5,43,40,37,43,39,36,100,99,93,30.22,30.16,30.12,10,5,0,9,2,,0.05,5,Fog-Rain,179
2013-1-6,46,40,35,41,39,35,100,94,77,30.21,30.15,30.00,10,10,10,8,6,,0.12,7,Rain,192
2013-1-7,50,46,41,50,46,41,100,97,86,30.19,29.98,29.85,10,8,2,21,11,28,0.12,8,Rain,197
2013-1-8,54,48,41,50,45,41,100,93,72,30.19,29.94,29.75,10,8,2,26,9,41,0.22,8,Rain,174
2013-1-9,50,41,32,49,40,32,100,97,87,29.96,29.79,29.70,10,9,5,20,13,26,0.81,6,Rain,203
2013-1-10,37,32,26,36,33,27,100,98,87,30.12,30.06,29.95,10,9,1,8,2,,0.01,7,Rain-Snow,187
2013-1-11,37,30,22,32,26,22,100,95,53,30.35,30.20,30.12,10,3,0,8,2,,0.00,0,Fog,126
2013-1-12,37,28,18,27,22,17,100,89,64,30.47,30.38,30.32,10,8,1,6,2,,0.00,1,,94
2013-1-13,35,26,17,28,21,16,100,91,70,30.52,30.48,30.43,10,10,6,5,2,,0.00,3,,112
2013-1-14,35,26,18,32,26,17,100,89,73,30.58,30.53,30.50,10,10,10,5,2,,0.00,5,,199
2013-1-15,43,34,24,34,30,24,100,91,65,30.71,30.67,30.60,10,10,9,9,2,,0.00,5,,166
2013-1-16,40,30,21,40,26,21,100,98,79,30.69,30.60,30.51,10,3,0,7,1,,0.00,1,Fog,169
2013-1-17,36,28,21,36,31,19,100,99,93,30.54,30.39,30.30,10,2,0,5,2,,0.00,5,Fog,205
2013-1-18,39,32,24,39,31,25,100,99,93,30.35,30.30,30.26,10,2,0,7,2,,0.00,5,Fog,54
2013-1-19,35,32,30,36,32,30,100,99,93,30.40,30.36,30.33,7,1,0,5,3,,0.00,8,Fog,64
2013-1-20,36,34,31,36,33,31,100,100,99,30.41,30.34,30.27,5,1,0,6,2,,0.00,8,Fog,72
2013-1-21,35,32,29,36,33,30,100,100,100,30.30,30.20,30.14,3,1,0,5,2,,0.00,7,Fog,123
2013-1-22,36,31,26,37,29,26,100,100,93,30.16,30.08,29.93,10,2,0,5,1,,0.00,6,Fog,27
2013-1-23,41,38,35,41,39,36,100,99,93,30.18,29.96,29.86,10,10,7,15,5,,0.12,4,Rain,202
2013-1-24,45,36,28,41,36,28,100,96,69,30.23,30.14,30.05,10,7,0,15,6,,0.15,4,Fog-Rain,136
2013-1-25,52,42,32,48,41,32,100,96,76,30.07,30.00,29.94,10,6,0,10,2,,0.10,6,Fog-Rain,165
2013-1-26,46,38,30,41,37,30,100,94,71,30.07,29.95,29.88,10,8,0,16,6,,0.01,4,Fog-Rain,182
2013-1-27,41,38,36,41,39,36,100,98,93,30.10,30.04,30.00,10,10,10,14,8,,0.09,6,Rain,187
2013-1-28,42,40,37,42,40,38,100,98,93,30.12,30.06,30.01,10,10,8,15,8,18,0.14,8,Rain,195
2013-1-29,47,44,41,46,44,41,100,96,87,30.38,30.31,30.13,10,10,8,21,9,28,0.13,8,Rain,193
2013-1-30,48,46,44,49,46,44,100,99,93,30.41,30.37,30.33,10,10,5,13,10,,0.15,8,Rain,189
2013-1-31,50,45,40,48,46,40,100,98,87,30.43,30.36,30.31,10,10,4,10,5,,0.05,7,Rain,191